Time;durP1;ratioP1;P1;durP2;ratioP2;P2;SDS_P1;SDS_P2;PMS_P1;PMS_P2;Temp;Humidity;BMP_temperature;BMP_pressure;BME280_temperature;BME280_humidity;BME280_pressure;Samples;Min_cycle;Max_cycle;Signal;HPM_P1;HPM_P2
2023/01/30 00:01:29;;;;;;;;;;;17.30;62.50;;;;;;5018186;28;847;-71
2023/01/30 00:03:55;;;;;;;;;;;17.30;62.60;;;;;;5039032;28;1902;-73
2023/01/30 00:06:20;;;;;;;;;;;17.30;62.60;;;;;;5019974;28;1488;-73
2023/01/30 00:08:46;;;;;;;;;;;17.30;62.50;;;;;;5017899;28;1294;-70
2023/01/30 00:11:12;;;;;;;;;;;17.30;63.30;;;;;;5021911;28;859;-71
2023/01/30 00:13:37;;;;;;;;;;;17.30;62.60;;;;;;5020176;28;1002;-71
2023/01/30 00:16:03;;;;;;;;;;;17.30;62.60;;;;;;5012999;28;974;-71
2023/01/30 00:18:28;;;;;;;;;;;17.30;62.60;;;;;;5016170;28;1327;-71
2023/01/30 00:20:58;;;;;;;;;;;17.20;62.50;;;;;;5021282;28;985;-71
2023/01/30 00:23:24;;;;;;;;;;;17.30;62.70;;;;;;5019281;28;1969;-71
2023/01/30 00:25:49;;;;;;;;;;;17.30;62.60;;;;;;5018965;28;888;-71
2023/01/30 00:28:15;;;;;;;;;;;17.30;63.40;;;;;;5035208;28;1776;-71
2023/01/30 00:30:40;;;;;;;;;;;17.30;62.70;;;;;;5018982;28;946;-70
2023/01/30 00:33:05;;;;;;;;;;;17.30;62.60;;;;;;5019375;28;869;-70
2023/01/30 00:35:31;;;;;;;;;;;17.20;63.40;;;;;;5018743;28;1634;-71
2023/01/30 00:37:57;;;;;;;;;;;17.30;62.70;;;;;;5019182;28;1323;-71
2023/01/30 00:40:23;;;;;;;;;;;17.20;62.60;;;;;;5052764;28;871;-71
2023/01/30 00:48:16;;;;;;;;;;;17.30;62.70;;;;;;5029977;28;1403;-70
2023/01/30 00:50:42;;;;;;;;;;;17.30;62.70;;;;;;5039269;28;1175;-71
2023/01/30 00:53:11;;;;;;;;;;;17.30;62.70;;;;;;5021107;28;833;-73
2023/01/30 00:55:36;;;;;;;;;;;17.20;62.60;;;;;;5014123;28;1345;-72
2023/01/30 00:58:02;;;;;;;;;;;17.30;62.70;;;;;;5022338;28;1689;-72
2023/01/30 01:00:27;;;;;;;;;;;17.20;62.70;;;;;;5023603;28;920;-71
2023/01/30 01:02:52;;;;;;;;;;;17.30;62.80;;;;;;5019806;28;894;-71
2023/01/30 01:05:18;;;;;;;;;;;17.30;62.80;;;;;;5023314;28;1344;-71
2023/01/30 01:07:43;;;;;;;;;;;17.20;62.70;;;;;;5025536;28;1308;-71
2023/01/30 01:10:15;;;;;;;;;;;17.20;62.70;;;;;;5022591;28;908;-71
2023/01/30 01:12:43;;;;;;;;;;;17.30;62.80;;;;;;5021664;28;851;-71
2023/01/30 01:15:10;;;;;;;;;;;17.20;62.70;;;;;;5022384;28;966;-72
2023/01/30 01:17:36;;;;;;;;;;;17.30;62.80;;;;;;5036647;28;1297;-72
2023/01/30 01:20:01;;;;;;;;;;;17.30;62.80;;;;;;5020731;28;895;-73
2023/01/30 01:22:27;;;;;;;;;;;17.20;62.70;;;;;;5025182;28;820;-75
2023/01/30 01:24:52;;;;;;;;;;;17.20;62.70;;;;;;5027954;28;1906;-75
2023/01/30 01:27:18;;;;;;;;;;;17.20;62.70;;;;;;5031118;28;1212;-75
2023/01/30 01:29:44;;;;;;;;;;;17.20;62.70;;;;;;5029198;28;1224;-75
2023/01/30 01:32:09;;;;;;;;;;;17.20;62.70;;;;;;5022287;28;923;-75
2023/01/30 01:34:35;;;;;;;;;;;17.20;62.80;;;;;;5022735;28;1271;-75
2023/01/30 01:37:00;;;;;;;;;;;17.20;62.80;;;;;;5019340;28;939;-75
2023/01/30 01:41:00;;;;;;;;;;;17.20;62.80;;;;;;5024147;28;1393;-71
2023/01/30 01:42:11;;;;;;;;;;;17.20;62.80;;;;;;5023866;28;1174;-71
2023/01/30 01:44:55;;;;;;;;;;;17.20;62.80;;;;;;5020991;28;1965;-71
2023/01/30 01:47:20;;;;;;;;;;;17.20;62.80;;;;;;5024538;28;894;-70
2023/01/30 01:49:46;;;;;;;;;;;17.20;62.90;;;;;;5034477;28;1252;-71
2023/01/30 01:52:12;;;;;;;;;;;17.20;62.80;;;;;;5052123;28;895;-71
2023/01/30 01:54:39;;;;;;;;;;;17.20;62.80;;;;;;5029449;28;1050;-70
2023/01/30 01:57:05;;;;;;;;;;;17.20;63.60;;;;;;5054488;28;891;-70
2023/01/30 01:59:36;;;;;;;;;;;17.20;62.80;;;;;;5012048;28;1255;-70
2023/01/30 02:02:02;;;;;;;;;;;17.20;62.80;;;;;;5056718;28;1399;-71
2023/01/30 02:07:12;;;;;;;;;;;17.20;62.90;;;;;;5046519;28;1055;-70
2023/01/30 02:09:37;;;;;;;;;;;17.20;62.80;;;;;;5056638;28;1350;-72
2023/01/30 02:12:03;;;;;;;;;;;17.20;62.90;;;;;;5024216;28;1314;-72
2023/01/30 02:14:29;;;;;;;;;;;17.20;62.90;;;;;;5052223;28;888;-72
2023/01/30 02:16:54;;;;;;;;;;;17.20;62.90;;;;;;5025033;28;907;-72
2023/01/30 02:19:25;;;;;;;;;;;17.20;62.90;;;;;;5018220;28;1359;-72
2023/01/30 02:22:06;;;;;;;;;;;17.20;62.90;;;;;;5036138;28;1007;-72
2023/01/30 02:24:48;;;;;;;;;;;17.20;62.90;;;;;;5054416;28;1957;-72
2023/01/30 02:27:18;;;;;;;;;;;17.20;62.90;;;;;;5022817;28;877;-72
2023/01/30 02:30:02;;;;;;;;;;;17.20;62.90;;;;;;5028563;28;1361;-70
2023/01/30 02:32:40;;;;;;;;;;;17.20;63.60;;;;;;5021221;28;816;-70
2023/01/30 02:35:23;;;;;;;;;;;17.20;62.90;;;;;;5017511;28;1367;-70
2023/01/30 02:37:48;;;;;;;;;;;17.20;62.90;;;;;;5051994;28;1241;-71
2023/01/30 02:40:17;;;;;;;;;;;17.20;62.90;;;;;;5017644;28;854;-71
2023/01/30 02:42:56;;;;;;;;;;;17.20;62.90;;;;;;5017563;28;923;-71
2023/01/30 02:45:22;;;;;;;;;;;17.20;62.90;;;;;;5018531;28;863;-71
2023/01/30 02:47:52;;;;;;;;;;;17.20;62.90;;;;;;5018037;28;1312;-72
2023/01/30 02:50:19;;;;;;;;;;;17.20;62.90;;;;;;5022320;28;1566;-71
2023/01/30 02:52:44;;;;;;;;;;;17.20;62.90;;;;;;5012084;28;1311;-71
2023/01/30 02:55:17;;;;;;;;;;;17.20;62.90;;;;;;5020680;28;1411;-72
2023/01/30 02:57:43;;;;;;;;;;;17.20;62.90;;;;;;5055492;28;1238;-72
2023/01/30 03:00:09;;;;;;;;;;;17.20;62.90;;;;;;5020533;28;1037;-71
2023/01/30 03:03:05;;;;;;;;;;;17.20;62.90;;;;;;5017104;28;1006;-71
2023/01/30 03:05:31;;;;;;;;;;;17.20;62.90;;;;;;5021821;28;1328;-72
2023/01/30 03:07:56;;;;;;;;;;;17.20;62.90;;;;;;5019308;28;1265;-71
2023/01/30 03:10:41;;;;;;;;;;;17.20;63.00;;;;;;5020552;28;904;-71
2023/01/30 03:13:12;;;;;;;;;;;17.20;62.90;;;;;;5020708;28;942;-71
2023/01/30 03:15:39;;;;;;;;;;;17.20;62.90;;;;;;5016908;28;907;-72
2023/01/30 03:18:05;;;;;;;;;;;17.20;62.90;;;;;;5022967;28;1267;-72
2023/01/30 03:20:30;;;;;;;;;;;17.20;62.90;;;;;;5022309;28;803;-72
2023/01/30 03:22:56;;;;;;;;;;;17.20;62.90;;;;;;5018978;28;879;-75
2023/01/30 03:25:22;;;;;;;;;;;17.20;62.90;;;;;;5022562;28;1926;-73
2023/01/30 03:27:49;;;;;;;;;;;17.20;62.90;;;;;;5026399;28;1321;-72
2023/01/30 03:30:14;;;;;;;;;;;17.20;63.00;;;;;;5025004;28;997;-74
2023/01/30 03:32:40;;;;;;;;;;;17.20;63.00;;;;;;5022117;28;1291;-72
2023/01/30 03:35:05;;;;;;;;;;;17.20;63.00;;;;;;5019996;28;1391;-72
2023/01/30 03:37:31;;;;;;;;;;;17.20;63.00;;;;;;5019993;28;1030;-72
2023/01/30 03:39:57;;;;;;;;;;;17.20;63.00;;;;;;5051027;28;1408;-72
2023/01/30 03:42:22;;;;;;;;;;;17.20;63.00;;;;;;5022811;28;943;-71
2023/01/30 03:44:48;;;;;;;;;;;17.20;63.00;;;;;;5020914;28;1910;-73
2023/01/30 03:47:13;;;;;;;;;;;17.20;63.00;;;;;;5019008;28;872;-71
2023/01/30 03:49:39;;;;;;;;;;;17.20;63.00;;;;;;5021025;28;1237;-71
2023/01/30 03:52:04;;;;;;;;;;;17.10;63.00;;;;;;5021492;28;924;-71
2023/01/30 03:54:30;;;;;;;;;;;17.10;62.90;;;;;;5018820;28;805;-71
2023/01/30 03:56:55;;;;;;;;;;;17.10;62.90;;;;;;5019633;28;884;-71
2023/01/30 03:59:21;;;;;;;;;;;17.10;62.90;;;;;;5020011;28;1193;-71
2023/01/30 04:01:46;;;;;;;;;;;17.10;62.90;;;;;;5019010;28;876;-71
2023/01/30 04:04:11;;;;;;;;;;;17.10;62.90;;;;;;5017823;28;1934;-71
2023/01/30 04:06:37;;;;;;;;;;;17.10;63.00;;;;;;5014861;28;1322;-71
2023/01/30 04:09:02;;;;;;;;;;;17.20;63.00;;;;;;5018498;28;1340;-71
2023/01/30 04:11:28;;;;;;;;;;;17.10;63.00;;;;;;5025022;28;1356;-71
2023/01/30 04:13:53;;;;;;;;;;;17.10;63.00;;;;;;5035396;28;869;-71
2023/01/30 04:16:20;;;;;;;;;;;17.10;63.00;;;;;;5020066;28;844;-72
2023/01/30 04:18:46;;;;;;;;;;;17.10;63.00;;;;;;5019182;28;1328;-72
2023/01/30 04:21:12;;;;;;;;;;;17.10;63.10;;;;;;5018961;28;1054;-72
2023/01/30 04:23:37;;;;;;;;;;;17.10;63.80;;;;;;5018830;28;1906;-71
2023/01/30 04:26:03;;;;;;;;;;;17.10;63.00;;;;;;5018167;28;840;-72
2023/01/30 04:28:29;;;;;;;;;;;17.10;63.00;;;;;;5018706;28;1241;-72
2023/01/30 04:30:54;;;;;;;;;;;17.10;63.10;;;;;;5018760;28;843;-72
2023/01/30 04:33:20;;;;;;;;;;;17.10;63.00;;;;;;5018388;28;904;-72
2023/01/30 04:35:52;;;;;;;;;;;17.10;63.00;;;;;;5019533;28;1299;-72
2023/01/30 04:38:18;;;;;;;;;;;17.10;63.00;;;;;;5021418;28;1268;-72
2023/01/30 04:40:46;;;;;;;;;;;17.10;63.10;;;;;;5017884;28;899;-72
2023/01/30 04:43:12;;;;;;;;;;;17.10;63.00;;;;;;5018255;28;1962;-72
2023/01/30 04:45:41;;;;;;;;;;;17.10;63.00;;;;;;5014925;28;920;-72
2023/01/30 04:48:06;;;;;;;;;;;17.10;63.00;;;;;;5050334;28;1275;-72
2023/01/30 04:50:32;;;;;;;;;;;17.10;63.00;;;;;;5017751;28;884;-71
2023/01/30 04:52:57;;;;;;;;;;;17.10;63.10;;;;;;5024651;28;1196;-72
2023/01/30 04:55:23;;;;;;;;;;;17.10;63.00;;;;;;5017714;28;896;-72
2023/01/30 04:57:48;;;;;;;;;;;17.10;63.10;;;;;;5020557;28;1259;-72
2023/01/30 05:00:14;;;;;;;;;;;17.10;63.10;;;;;;5019113;28;881;-72
2023/01/30 05:02:39;;;;;;;;;;;17.10;63.10;;;;;;5016231;28;907;-71
2023/01/30 05:05:05;;;;;;;;;;;17.10;63.10;;;;;;5017749;28;1911;-71
2023/01/30 05:07:30;;;;;;;;;;;17.10;63.10;;;;;;5017205;28;934;-71
2023/01/30 05:09:55;;;;;;;;;;;17.10;63.10;;;;;;5015176;28;1292;-71
2023/01/30 05:12:21;;;;;;;;;;;17.10;63.00;;;;;;5016746;28;847;-71
2023/01/30 05:14:46;;;;;;;;;;;17.10;62.90;;;;;;5017204;28;836;-72
2023/01/30 05:17:12;;;;;;;;;;;17.20;62.90;;;;;;5017654;28;910;-71
2023/01/30 05:19:37;;;;;;;;;;;17.20;62.90;;;;;;5018681;28;1581;-71
2023/01/30 05:22:03;;;;;;;;;;;17.20;63.50;;;;;;5019034;28;934;-71
2023/01/30 05:24:28;;;;;;;;;;;17.30;62.60;;;;;;5015820;28;1902;-71
2023/01/30 05:26:54;;;;;;;;;;;17.30;62.50;;;;;;5025671;28;917;-71
2023/01/30 05:29:19;;;;;;;;;;;17.30;62.30;;;;;;5018626;28;1371;-71
2023/01/30 05:31:45;;;;;;;;;;;17.30;62.20;;;;;;5020383;28;816;-72
2023/01/30 05:34:10;;;;;;;;;;;17.40;62.90;;;;;;5020015;28;1521;-72
2023/01/30 05:36:36;;;;;;;;;;;17.40;62.00;;;;;;5054474;28;1587;-72
2023/01/30 05:39:01;;;;;;;;;;;17.40;61.90;;;;;;5024350;28;1259;-73
2023/01/30 05:41:27;;;;;;;;;;;17.50;61.90;;;;;;5038397;28;847;-72
2023/01/30 05:43:52;;;;;;;;;;;17.50;61.80;;;;;;5020584;28;1981;-72
2023/01/30 05:46:18;;;;;;;;;;;17.50;61.70;;;;;;5049755;28;858;-72
2023/01/30 05:48:43;;;;;;;;;;;17.50;61.70;;;;;;5019193;28;1265;-72
2023/01/30 05:51:19;;;;;;;;;;;17.50;61.60;;;;;;5019828;28;931;-72
2023/01/30 05:53:44;;;;;;;;;;;17.60;61.60;;;;;;5020530;28;821;-72
2023/01/30 05:56:10;;;;;;;;;;;17.60;61.50;;;;;;5021199;28;872;-73
2023/01/30 05:58:35;;;;;;;;;;;17.60;61.50;;;;;;5052899;28;1325;-72
2023/01/30 06:01:01;;;;;;;;;;;17.60;62.20;;;;;;5022307;28;864;-73
2023/01/30 06:03:27;;;;;;;;;;;17.60;61.40;;;;;;5022863;28;1955;-72
2023/01/30 06:05:52;;;;;;;;;;;17.60;61.40;;;;;;5023233;28;896;-72
2023/01/30 06:08:18;;;;;;;;;;;17.60;61.30;;;;;;5023263;28;1399;-72
2023/01/30 06:10:43;;;;;;;;;;;17.60;61.30;;;;;;5021241;28;908;-72
2023/01/30 06:13:09;;;;;;;;;;;17.60;61.20;;;;;;5018277;28;1147;-72
2023/01/30 06:15:35;;;;;;;;;;;17.60;61.20;;;;;;5019368;28;794;-72
2023/01/30 06:18:01;;;;;;;;;;;17.60;61.20;;;;;;5022614;28;1280;-72
2023/01/30 06:20:26;;;;;;;;;;;17.60;61.20;;;;;;5021174;28;1360;-72
2023/01/30 06:22:51;;;;;;;;;;;17.60;61.20;;;;;;5020448;28;809;-72
2023/01/30 06:25:17;;;;;;;;;;;17.60;61.10;;;;;;5019402;28;1899;-72
2023/01/30 06:27:44;;;;;;;;;;;17.70;61.20;;;;;;5021783;28;1272;-71
2023/01/30 06:30:09;;;;;;;;;;;17.70;61.20;;;;;;5020444;28;989;-71
2023/01/30 06:32:35;;;;;;;;;;;17.70;61.20;;;;;;5018326;28;892;-71
2023/01/30 06:35:00;;;;;;;;;;;17.60;61.10;;;;;;5019472;28;1372;-71
2023/01/30 06:37:26;;;;;;;;;;;17.60;61.10;;;;;;5018716;28;825;-71
2023/01/30 06:39:51;;;;;;;;;;;17.70;61.10;;;;;;5020491;28;1323;-71
2023/01/30 06:42:17;;;;;;;;;;;17.70;61.10;;;;;;5020732;28;1003;-71
2023/01/30 06:44:42;;;;;;;;;;;17.70;61.10;;;;;;5020902;28;1973;-71
2023/01/30 06:47:08;;;;;;;;;;;17.70;61.10;;;;;;5018849;28;848;-71
2023/01/30 06:49:33;;;;;;;;;;;17.70;61.10;;;;;;5019347;28;1380;-71
2023/01/30 06:51:58;;;;;;;;;;;17.70;61.10;;;;;;5020653;28;999;-71
2023/01/30 06:54:24;;;;;;;;;;;17.70;61.00;;;;;;5019782;28;840;-72
2023/01/30 06:56:49;;;;;;;;;;;17.70;61.00;;;;;;5018199;28;852;-72
2023/01/30 06:59:15;;;;;;;;;;;17.70;61.00;;;;;;5020597;28;1285;-72
2023/01/30 07:01:40;;;;;;;;;;;17.70;61.00;;;;;;5019654;28;1042;-71
2023/01/30 07:04:06;;;;;;;;;;;17.70;61.00;;;;;;5022480;28;1965;-71
2023/01/30 07:06:31;;;;;;;;;;;17.70;61.00;;;;;;5021388;28;1014;-71
2023/01/30 07:08:57;;;;;;;;;;;17.70;61.00;;;;;;5020678;28;1358;-71
2023/01/30 07:11:26;;;;;;;;;;;17.70;61.00;;;;;;5021503;28;912;-71
2023/01/30 07:13:51;;;;;;;;;;;17.70;61.00;;;;;;5020679;28;835;-71
2023/01/30 07:16:17;;;;;;;;;;;17.70;61.00;;;;;;5022798;28;1235;-71
2023/01/30 07:18:42;;;;;;;;;;;17.70;61.00;;;;;;5017839;28;1295;-71
2023/01/30 07:21:08;;;;;;;;;;;17.70;61.00;;;;;;5039293;28;835;-71
2023/01/30 07:23:33;;;;;;;;;;;17.70;61.00;;;;;;5019408;28;1986;-71
2023/01/30 07:26:01;;;;;;;;;;;17.70;61.00;;;;;;5019595;28;868;-71
2023/01/30 07:28:27;;;;;;;;;;;17.70;61.00;;;;;;5026889;28;1353;-71
2023/01/30 07:30:52;;;;;;;;;;;17.70;61.00;;;;;;5019187;28;884;-71
2023/01/30 07:33:18;;;;;;;;;;;17.70;61.00;;;;;;5019667;28;887;-71
2023/01/30 07:35:44;;;;;;;;;;;17.70;61.00;;;;;;5019300;28;921;-71
2023/01/30 07:38:09;;;;;;;;;;;17.70;61.00;;;;;;5018046;28;1287;-71
2023/01/30 07:40:35;;;;;;;;;;;17.70;61.10;;;;;;5018351;28;824;-71
2023/01/30 07:43:07;;;;;;;;;;;17.70;61.00;;;;;;5019893;28;871;-71
2023/01/30 07:45:37;;;;;;;;;;;17.70;61.00;;;;;;5020820;28;1938;-72
2023/01/30 07:48:02;;;;;;;;;;;17.70;61.00;;;;;;5019118;28;1762;-69
2023/01/30 07:50:28;;;;;;;;;;;17.70;61.10;;;;;;5019776;28;1933;-70
2023/01/30 07:52:53;;;;;;;;;;;17.70;61.10;;;;;;5022061;28;1558;-70
2023/01/30 07:55:19;;;;;;;;;;;17.70;61.10;;;;;;5018420;28;1354;-70
2023/01/30 07:57:44;;;;;;;;;;;17.70;61.10;;;;;;5021874;28;1267;-69
2023/01/30 08:00:11;;;;;;;;;;;17.70;61.10;;;;;;5033487;28;833;-72
2023/01/30 08:02:36;;;;;;;;;;;17.70;61.10;;;;;;5022043;28;839;-72
2023/01/30 08:05:02;;;;;;;;;;;17.70;61.10;;;;;;5048864;28;1973;-71
2023/01/30 08:07:27;;;;;;;;;;;17.70;61.80;;;;;;5034772;28;868;-71
2023/01/30 08:09:53;;;;;;;;;;;17.70;61.10;;;;;;5021654;28;1272;-72
2023/01/30 08:12:18;;;;;;;;;;;17.70;61.10;;;;;;5021001;28;1011;-71
2023/01/30 08:14:44;;;;;;;;;;;17.70;61.10;;;;;;5020146;28;842;-71
2023/01/30 08:17:09;;;;;;;;;;;17.70;61.10;;;;;;5017298;28;1015;-71
2023/01/30 08:19:35;;;;;;;;;;;17.70;61.80;;;;;;5017511;28;1267;-71
2023/01/30 08:22:00;;;;;;;;;;;17.70;61.10;;;;;;5018981;28;1349;-71
2023/01/30 08:24:25;;;;;;;;;;;17.70;61.10;;;;;;5015361;28;1934;-71
2023/01/30 08:26:51;;;;;;;;;;;17.70;61.10;;;;;;5022111;28;931;-71
2023/01/30 08:29:16;;;;;;;;;;;17.70;61.20;;;;;;5023886;28;1350;-72
2023/01/30 08:31:42;;;;;;;;;;;17.70;61.10;;;;;;5019208;28;904;-72
2023/01/30 08:34:07;;;;;;;;;;;17.70;61.10;;;;;;5017195;28;1261;-72
2023/01/30 08:36:33;;;;;;;;;;;17.70;61.10;;;;;;5021324;28;985;-72
2023/01/30 08:38:58;;;;;;;;;;;17.70;61.10;;;;;;5018319;28;1277;-71
2023/01/30 08:41:26;;;;;;;;;;;17.70;61.10;;;;;;5017015;28;832;-72
2023/01/30 08:43:51;;;;;;;;;;;17.70;61.10;;;;;;5017861;28;1914;-72
2023/01/30 08:46:18;;;;;;;;;;;17.70;61.10;;;;;;5014843;28;1474;-72
2023/01/30 08:48:45;;;;;;;;;;;17.70;61.10;;;;;;5020390;28;1283;-71
2023/01/30 08:51:10;;;;;;;;;;;17.70;61.10;;;;;;5020202;28;1269;-72
2023/01/30 08:53:36;;;;;;;;;;;17.70;61.20;;;;;;5017233;28;1465;-72
2023/01/30 08:56:01;;;;;;;;;;;17.70;61.10;;;;;;5016042;28;943;-72
2023/01/30 08:58:27;;;;;;;;;;;17.70;61.10;;;;;;5014715;28;1269;-72
2023/01/30 09:00:52;;;;;;;;;;;17.70;61.20;;;;;;5016452;28;832;-72
2023/01/30 09:03:18;;;;;;;;;;;17.70;61.90;;;;;;5020206;28;1906;-72
2023/01/30 09:05:43;;;;;;;;;;;17.70;61.20;;;;;;5020473;28;812;-71
2023/01/30 09:08:09;;;;;;;;;;;17.70;61.20;;;;;;5022335;28;1322;-71
2023/01/30 09:10:34;;;;;;;;;;;17.70;61.20;;;;;;5027197;28;835;-70
2023/01/30 09:13:00;;;;;;;;;;;17.70;61.30;;;;;;5019492;28;933;-70
2023/01/30 09:15:25;;;;;;;;;;;17.60;61.20;;;;;;5050830;28;919;-70
2023/01/30 09:17:51;;;;;;;;;;;17.60;61.30;;;;;;5020320;28;1331;-70
2023/01/30 09:20:19;;;;;;;;;;;17.60;61.20;;;;;;5017967;28;923;-70
2023/01/30 09:22:44;;;;;;;;;;;17.60;61.20;;;;;;5023811;28;863;-70
2023/01/30 09:25:10;;;;;;;;;;;17.60;61.30;;;;;;5024563;28;1979;-70
2023/01/30 09:27:35;;;;;;;;;;;17.60;61.20;;;;;;5025839;28;841;-71
2023/01/30 09:30:01;;;;;;;;;;;17.70;61.30;;;;;;5036709;28;1282;-71
2023/01/30 09:32:27;;;;;;;;;;;17.70;61.30;;;;;;5022873;28;915;-70
2023/01/30 09:34:52;;;;;;;;;;;17.70;61.30;;;;;;5022183;28;1280;-71
2023/01/30 09:37:18;;;;;;;;;;;17.70;61.20;;;;;;5036066;28;1311;-71
2023/01/30 09:39:43;;;;;;;;;;;17.70;61.20;;;;;;5055605;28;1290;-70
2023/01/30 09:42:09;;;;;;;;;;;17.70;61.20;;;;;;5022507;28;950;-70
2023/01/30 09:44:34;;;;;;;;;;;17.70;61.20;;;;;;5021623;28;1906;-71
2023/01/30 09:47:06;;;;;;;;;;;17.70;61.20;;;;;;5023441;28;2075;-70
2023/01/30 09:49:45;;;;;;;;;;;17.70;61.20;;;;;;5029995;28;2094;-70
2023/01/30 09:52:29;;;;;;;;;;;17.70;61.10;;;;;;5053022;28;1316;-71
2023/01/30 09:54:58;;;;;;;;;;;17.70;61.10;;;;;;5037773;28;1375;-71
2023/01/30 09:57:23;;;;;;;;;;;17.70;61.10;;;;;;5028468;28;932;-71
2023/01/30 10:00:03;;;;;;;;;;;17.70;61.10;;;;;;5022632;28;1287;-71
2023/01/30 10:02:55;;;;;;;;;;;17.70;61.10;;;;;;5028588;28;1203;-71
2023/01/30 10:05:21;;;;;;;;;;;17.70;61.00;;;;;;5016566;28;1974;-71
2023/01/30 10:08:02;;;;;;;;;;;17.70;61.00;;;;;;5053617;28;1392;-71
2023/01/30 10:10:40;;;;;;;;;;;17.70;61.00;;;;;;5051383;28;895;-71
2023/01/30 10:13:13;;;;;;;;;;;17.70;61.00;;;;;;5052821;28;812;-71
2023/01/30 10:15:42;;;;;;;;;;;17.70;60.90;;;;;;5052353;28;907;-71
2023/01/30 10:18:26;;;;;;;;;;;17.70;60.90;;;;;;5019657;28;1292;-71
2023/01/30 10:20:55;;;;;;;;;;;17.80;61.00;;;;;;5019554;28;1053;-71
2023/01/30 10:23:33;;;;;;;;;;;17.80;60.90;;;;;;5016946;28;1934;-71
2023/01/30 10:26:11;;;;;;;;;;;17.80;60.90;;;;;;5021161;28;887;-71
2023/01/30 10:28:41;;;;;;;;;;;17.80;60.90;;;;;;5023123;28;1316;-71
2023/01/30 10:31:13;;;;;;;;;;;17.80;60.90;;;;;;5020597;28;903;-71
2023/01/30 10:33:44;;;;;;;;;;;17.80;60.90;;;;;;5019650;28;883;-71
2023/01/30 10:36:22;;;;;;;;;;;17.80;60.90;;;;;;5021095;28;1392;-71
2023/01/30 10:38:48;;;;;;;;;;;17.80;60.90;;;;;;5052008;28;1393;-71
2023/01/30 10:41:23;;;;;;;;;;;17.80;60.90;;;;;;5023264;28;1058;-71
2023/01/30 10:43:53;;;;;;;;;;;17.80;60.90;;;;;;5021966;28;1902;-71
2023/01/30 10:46:23;;;;;;;;;;;17.80;61.00;;;;;;5021604;28;1279;-71
2023/01/30 10:48:49;;;;;;;;;;;17.80;61.00;;;;;;5027296;28;1356;-71
2023/01/30 10:51:23;;;;;;;;;;;17.70;60.90;;;;;;5019019;28;900;-71
2023/01/30 10:53:51;;;;;;;;;;;17.70;61.00;;;;;;5022364;28;906;-71
2023/01/30 10:56:21;;;;;;;;;;;17.70;61.00;;;;;;5021360;28;919;-71
2023/01/30 10:58:53;;;;;;;;;;;17.70;61.00;;;;;;5035808;28;1249;-71
2023/01/30 11:01:22;;;;;;;;;;;17.70;61.10;;;;;;5023343;28;900;-71
2023/01/30 11:04:01;;;;;;;;;;;17.70;61.10;;;;;;5051235;28;1890;-71
2023/01/30 11:06:26;;;;;;;;;;;17.70;61.10;;;;;;5011536;28;1791;-71
2023/01/30 11:08:52;;;;;;;;;;;17.70;61.20;;;;;;5049735;28;1387;-70
2023/01/30 11:11:38;;;;;;;;;;;17.70;61.20;;;;;;5035192;28;857;-71
2023/01/30 11:14:04;;;;;;;;;;;17.70;61.20;;;;;;5018744;28;1316;-71
2023/01/30 11:16:30;;;;;;;;;;;17.70;61.30;;;;;;5020418;28;845;-71
2023/01/30 11:18:58;;;;;;;;;;;17.60;61.30;;;;;;5035052;28;1769;-71
2023/01/30 11:21:29;;;;;;;;;;;17.60;61.30;;;;;;5020704;28;911;-71
2023/01/30 11:23:55;;;;;;;;;;;17.60;61.30;;;;;;5020430;28;1964;-70
2023/01/30 11:26:27;;;;;;;;;;;17.60;61.40;;;;;;5022146;28;888;-72
2023/01/30 11:28:53;;;;;;;;;;;17.60;61.50;;;;;;5022190;28;1367;-72
2023/01/30 11:31:24;;;;;;;;;;;17.60;61.50;;;;;;5022453;28;899;-71
2023/01/30 11:33:59;;;;;;;;;;;17.60;61.50;;;;;;5052452;28;852;-71
2023/01/30 11:36:26;;;;;;;;;;;17.60;61.50;;;;;;5020435;28;1475;-71
2023/01/30 11:38:54;;;;;;;;;;;17.60;61.60;;;;;;5017971;28;1347;-71
2023/01/30 11:41:20;;;;;;;;;;;17.60;61.60;;;;;;5022462;28;1018;-71
2023/01/30 11:43:47;;;;;;;;;;;17.50;61.60;;;;;;5019187;28;1906;-72
2023/01/30 11:46:19;;;;;;;;;;;17.50;61.60;;;;;;5019584;28;860;-71
2023/01/30 11:48:44;;;;;;;;;;;17.50;61.70;;;;;;5026482;28;1255;-71
2023/01/30 11:51:10;;;;;;;;;;;17.50;61.80;;;;;;5019151;28;876;-71
2023/01/30 11:53:37;;;;;;;;;;;17.50;61.80;;;;;;5022489;28;904;-71
2023/01/30 11:56:03;;;;;;;;;;;17.50;61.80;;;;;;5021272;28;1329;-72
2023/01/30 11:58:30;;;;;;;;;;;17.50;61.80;;;;;;5020848;28;1333;-73
2023/01/30 12:00:55;;;;;;;;;;;17.50;61.80;;;;;;5049709;28;895;-73
2023/01/30 12:03:21;;;;;;;;;;;17.50;61.90;;;;;;5052887;28;1899;-72
2023/01/30 12:05:47;;;;;;;;;;;17.50;61.90;;;;;;5021439;28;867;-71
2023/01/30 12:08:15;;;;;;;;;;;17.50;62.00;;;;;;5037286;28;1492;-71
2023/01/30 12:10:41;;;;;;;;;;;17.50;62.20;;;;;;5016241;28;900;-72
2023/01/30 12:13:27;;;;;;;;;;;17.50;61.20;;;;;;5032223;28;1307;-72
2023/01/30 12:16:01;;;;;;;;;;;17.50;59.70;;;;;;5016236;28;1020;-72
2023/01/30 12:18:37;;;;;;;;;;;17.50;58.50;;;;;;5033925;28;1299;-72
2023/01/30 12:21:10;;;;;;;;;;;17.50;57.80;;;;;;5050411;28;850;-72
2023/01/30 12:23:49;;;;;;;;;;;17.50;56.90;;;;;;5020050;28;1902;-71
2023/01/30 12:26:15;;;;;;;;;;;17.50;55.70;;;;;;5023217;28;903;-72
2023/01/30 12:28:45;;;;;;;;;;;17.50;54.70;;;;;;5022284;28;1279;-72
2023/01/30 12:31:11;;;;;;;;;;;17.40;54.00;;;;;;5016436;28;931;-72
2023/01/30 12:33:36;;;;;;;;;;;17.40;53.90;;;;;;5020797;28;959;-72
2023/01/30 12:36:12;;;;;;;;;;;17.40;53.00;;;;;;5052682;28;894;-72
2023/01/30 12:38:45;;;;;;;;;;;17.40;53.50;;;;;;5024277;28;1370;-72
2023/01/30 12:41:23;;;;;;;;;;;17.30;54.00;;;;;;5050719;28;842;-72
2023/01/30 12:43:48;;;;;;;;;;;17.30;54.40;;;;;;5051421;28;1965;-72
2023/01/30 12:46:23;;;;;;;;;;;17.30;54.60;;;;;;5017967;28;1010;-72
2023/01/30 12:49:00;;;;;;;;;;;17.30;55.10;;;;;;5016210;28;1362;-72
2023/01/30 12:51:39;;;;;;;;;;;17.30;55.50;;;;;;5019444;28;911;-72
2023/01/30 12:54:11;;;;;;;;;;;17.20;55.70;;;;;;5010066;28;1263;-72
2023/01/30 12:56:54;;;;;;;;;;;17.20;56.10;;;;;;5018158;28;813;-72
2023/01/30 12:59:47;;;;;;;;;;;17.20;56.40;;;;;;5018937;28;1258;-72
2023/01/30 13:02:15;;;;;;;;;;;17.20;56.70;;;;;;5012987;28;1203;-72
2023/01/30 13:04:47;;;;;;;;;;;17.20;57.00;;;;;;5033825;28;1969;-72
2023/01/30 13:07:31;;;;;;;;;;;17.20;57.20;;;;;;5048414;28;1037;-71
2023/01/30 13:10:05;;;;;;;;;;;17.20;57.40;;;;;;5021258;28;1373;-70
2023/01/30 13:12:49;;;;;;;;;;;17.20;57.60;;;;;;5011394;28;1372;-70
2023/01/30 13:15:21;;;;;;;;;;;17.20;57.70;;;;;;5024113;23;2055;-70
2023/01/30 13:18:14;;;;;;;;;;;17.20;57.90;;;;;;5048745;28;1263;-70
2023/01/30 13:20:53;;;;;;;;;;;17.20;58.00;;;;;;5020529;28;1366;-69
2023/01/30 13:23:21;;;;;;;;;;;17.20;58.20;;;;;;5019333;28;989;-69
2023/01/30 13:25:46;;;;;;;;;;;17.20;58.20;;;;;;5031385;28;1922;-69
2023/01/30 13:28:13;;;;;;;;;;;17.20;58.30;;;;;;5015144;28;1364;-69
2023/01/30 13:30:39;;;;;;;;;;;17.30;58.30;;;;;;5033478;28;808;-71
2023/01/30 13:33:34;;;;;;;;;;;17.30;58.20;;;;;;5008223;28;1207;-70
2023/01/30 13:35:59;;;;;;;;;;;17.30;58.20;;;;;;5014980;28;1766;-70
2023/01/30 13:38:25;;;;;;;;;;;17.40;58.30;;;;;;5016327;28;1277;-70
2023/01/30 13:40:52;;;;;;;;;;;17.40;58.30;;;;;;5034299;28;1599;-71
2023/01/30 13:43:19;;;;;;;;;;;17.40;58.30;;;;;;5023718;28;1179;-69
2023/01/30 13:45:45;;;;;;;;;;;17.50;58.30;;;;;;5018209;28;1973;-69
2023/01/30 13:48:16;;;;;;;;;;;17.50;58.30;;;;;;5032990;28;1264;-69
2023/01/30 13:50:42;;;;;;;;;;;17.50;58.30;;;;;;5019081;28;839;-70
2023/01/30 13:53:09;;;;;;;;;;;17.50;58.20;;;;;;5022275;28;828;-71
2023/01/30 13:55:54;;;;;;;;;;;17.50;58.30;;;;;;5018890;28;888;-70
2023/01/30 13:58:23;;;;;;;;;;;17.60;58.30;;;;;;5020338;28;1405;-70
2023/01/30 14:00:52;;;;;;;;;;;17.60;58.30;;;;;;5021185;28;888;-70
2023/01/30 14:03:22;;;;;;;;;;;17.60;58.30;;;;;;5022342;28;1899;-70
2023/01/30 14:05:48;;;;;;;;;;;17.60;58.30;;;;;;5036357;28;1899;-71
2023/01/30 14:08:20;;;;;;;;;;;17.70;58.30;;;;;;5021424;28;1536;-71
2023/01/30 14:10:46;;;;;;;;;;;17.70;58.30;;;;;;5036340;28;947;-70
2023/01/30 14:13:12;;;;;;;;;;;17.70;58.40;;;;;;5035013;28;1090;-70
2023/01/30 14:15:37;;;;;;;;;;;17.70;58.30;;;;;;5034843;28;955;-70
2023/01/30 14:18:06;;;;;;;;;;;17.70;58.30;;;;;;5021605;28;1185;-71
2023/01/30 14:20:36;;;;;;;;;;;17.70;58.40;;;;;;5030123;28;1978;-70
2023/01/30 14:23:02;;;;;;;;;;;17.70;58.40;;;;;;5027275;28;1166;-70
2023/01/30 14:25:28;;;;;;;;;;;17.70;58.40;;;;;;5022595;28;1910;-71
2023/01/30 14:27:59;;;;;;;;;;;17.70;58.40;;;;;;5018728;28;1621;-70
2023/01/30 14:30:33;;;;;;;;;;;17.70;58.40;;;;;;5021157;28;897;-71
2023/01/30 14:32:59;;;;;;;;;;;17.70;58.40;;;;;;5021660;28;982;-71
2023/01/30 14:35:25;;;;;;;;;;;17.70;58.40;;;;;;5034039;28;997;-72
2023/01/30 14:38:02;;;;;;;;;;;17.70;58.50;;;;;;5020394;28;1473;-70
2023/01/30 14:40:29;;;;;;;;;;;17.70;58.50;;;;;;5038005;28;810;-70
2023/01/30 14:43:10;;;;;;;;;;;17.70;58.50;;;;;;5021625;28;1167;-70
2023/01/30 14:45:48;;;;;;;;;;;17.70;58.60;;;;;;5020278;28;1952;-70
2023/01/30 14:48:37;;;;;;;;;;;17.70;58.60;;;;;;5020133;28;1362;-71
2023/01/30 14:51:15;;;;;;;;;;;17.70;58.70;;;;;;5014462;28;1159;-70